Vremea acum in Nadlac - Romania

Vrei sa afli care e starea vremii acum in Timis - Romania? Dorim sa iti furnizam starea vremii pentru Timis - Romania. Starea vremii Timis - Romania pentru astazi.

Vremea acum in Nadlac

Temperatura: 11 °C

Se simte ca: 11 °C
Innorat: 0 %
Precipitatii: 0 %
Presiune atmosferica: 1023 hPa
Umiditate: 62%
Vizibilitate: 10 km
Vantul bate din SE cu 2.2 km/h

Evolutia vremii in Nadlac pe ore

Ora: 01:00
Parțial noros
Temperatura: 15°C
Sansa de precipitatii: 0%
Ora Descriere Temp Se simte Precipitatii Umiditate Vant
00:00Parțial noros15.4°15.7°0%35%SE 5.4 KM/H
01:00Parțial noros15°15.5°0%36%SE 4.7 KM/H
02:00Parțial noros14.7°15.1°0%37%ESE 5 KM/H
03:00Parțial noros14.4°14.7°0%37%ESE 5 KM/H
04:00Parțial noros14.1°14.3°0%38%E 5.4 KM/H
05:00Parțial noros14.1°14.2°0%38%E 5.8 KM/H
06:00Parțial noros14°14°0%38%E 6.5 KM/H
07:00Parțial noros14°13.9°0%38%E 6.8 KM/H
08:00Parțial noros16.2°16.1°0%34%E 6.8 KM/H
09:00Parțial noros18.4°18.4°0%30%E 7.2 KM/H
10:00Parțial noros20.6°20.6°0%26%E 7.2 KM/H
11:00Parțial noros21.7°21.7°0%24%E 7.6 KM/H
12:00Parțial noros22.9°22.3°0%22%E 7.9 KM/H
13:00Parțial noros24°23.2°0%20%ENE 8.3 KM/H
14:00Parțial noros23.6°23.1°0%21%ENE 7.9 KM/H
15:00Parțial noros23.3°22.9°0%22%ENE 7.2 KM/H
16:00Parțial noros22.9°22.8°0%22%ENE 6.8 KM/H
17:00Parțial noros21.6°21.6°0%25%ENE 7.6 KM/H
18:00Parțial noros20.2°20.2°0%27%NE 7.9 KM/H
19:00Parțial noros18.9°18.9°0%29%NE 8.6 KM/H
20:00Parțial noros18°18°0%30%ENE 7.9 KM/H
21:00Parțial noros17.2°17.2°0%32%ENE 7.6 KM/H
22:00Parțial noros16.3°16.3°0%33%ENE 6.8 KM/H
23:00Parțial noros16.1°16.1°0%34%ENE 5 KM/H